sensor_id;sensor_type;location;lat;lon;timestamp;temperature;humidity
67598;DHT22;62026;39.230;9.122;2023-02-28T00:01:29;13.00;73.20
67598;DHT22;62026;39.230;9.122;2023-02-28T00:03:55;13.00;73.10
67598;DHT22;62026;39.230;9.122;2023-02-28T00:06:22;13.10;72.90
67598;DHT22;62026;39.230;9.122;2023-02-28T00:08:50;13.10;72.80
67598;DHT22;62026;39.230;9.122;2023-02-28T00:11:16;13.10;72.70
67598;DHT22;62026;39.230;9.122;2023-02-28T00:13:45;13.10;72.90
67598;DHT22;62026;39.230;9.122;2023-02-28T00:16:18;13.10;73.30
67598;DHT22;62026;39.230;9.122;2023-02-28T00:18:45;13.10;73.40
67598;DHT22;62026;39.230;9.122;2023-02-28T00:21:13;13.10;72.50
67598;DHT22;62026;39.230;9.122;2023-02-28T00:23:39;13.10;71.20
67598;DHT22;62026;39.230;9.122;2023-02-28T00:26:06;13.00;70.00
67598;DHT22;62026;39.230;9.122;2023-02-28T00:28:32;12.90;69.60
67598;DHT22;62026;39.230;9.122;2023-02-28T00:30:59;12.90;69.80
67598;DHT22;62026;39.230;9.122;2023-02-28T00:33:26;12.90;69.50
67598;DHT22;62026;39.230;9.122;2023-02-28T00:36:05;12.80;69.60
67598;DHT22;62026;39.230;9.122;2023-02-28T00:38:35;12.80;69.90
67598;DHT22;62026;39.230;9.122;2023-02-28T00:41:02;12.80;69.70
67598;DHT22;62026;39.230;9.122;2023-02-28T00:43:31;12.80;69.60
67598;DHT22;62026;39.230;9.122;2023-02-28T00:45:58;12.80;69.70
67598;DHT22;62026;39.230;9.122;2023-02-28T00:48:24;12.70;69.60
67598;DHT22;62026;39.230;9.122;2023-02-28T00:50:50;12.70;69.80
67598;DHT22;62026;39.230;9.122;2023-02-28T00:53:16;12.60;70.00
67598;DHT22;62026;39.230;9.122;2023-02-28T00:55:43;12.70;69.70
67598;DHT22;62026;39.230;9.122;2023-02-28T00:58:10;12.60;69.90
67598;DHT22;62026;39.230;9.122;2023-02-28T01:00:36;12.60;70.10
67598;DHT22;62026;39.230;9.122;2023-02-28T01:03:02;12.60;70.20
67598;DHT22;62026;39.230;9.122;2023-02-28T01:05:28;12.60;70.20
67598;DHT22;62026;39.230;9.122;2023-02-28T01:07:54;12.60;69.90
67598;DHT22;62026;39.230;9.122;2023-02-28T01:10:20;12.50;69.90
67598;DHT22;62026;39.230;9.122;2023-02-28T01:12:46;12.50;70.10
67598;DHT22;62026;39.230;9.122;2023-02-28T01:15:15;12.60;69.90
67598;DHT22;62026;39.230;9.122;2023-02-28T01:17:41;12.50;69.80
67598;DHT22;62026;39.230;9.122;2023-02-28T01:20:07;12.50;69.70
67598;DHT22;62026;39.230;9.122;2023-02-28T01:22:35;12.50;69.60
67598;DHT22;62026;39.230;9.122;2023-02-28T01:25:01;12.50;69.50
67598;DHT22;62026;39.230;9.122;2023-02-28T01:27:27;12.40;69.60
67598;DHT22;62026;39.230;9.122;2023-02-28T01:29:54;12.40;69.80
67598;DHT22;62026;39.230;9.122;2023-02-28T01:32:20;12.40;69.90
67598;DHT22;62026;39.230;9.122;2023-02-28T01:34:46;12.30;69.90
67598;DHT22;62026;39.230;9.122;2023-02-28T01:37:12;12.30;69.90
67598;DHT22;62026;39.230;9.122;2023-02-28T01:39:42;12.30;69.80
67598;DHT22;62026;39.230;9.122;2023-02-28T01:42:09;12.30;70.00
67598;DHT22;62026;39.230;9.122;2023-02-28T01:45:02;12.30;70.10
67598;DHT22;62026;39.230;9.122;2023-02-28T01:47:49;12.20;70.00
67598;DHT22;62026;39.230;9.122;2023-02-28T01:50:24;12.20;69.90
67598;DHT22;62026;39.230;9.122;2023-02-28T01:52:55;12.20;69.90
67598;DHT22;62026;39.230;9.122;2023-02-28T01:55:26;12.20;69.80
67598;DHT22;62026;39.230;9.122;2023-02-28T01:57:59;12.10;69.90
67598;DHT22;62026;39.230;9.122;2023-02-28T02:00:29;12.10;70.00
67598;DHT22;62026;39.230;9.122;2023-02-28T02:02:58;12.10;70.10
67598;DHT22;62026;39.230;9.122;2023-02-28T02:05:29;12.10;70.20
67598;DHT22;62026;39.230;9.122;2023-02-28T02:08:05;12.00;70.30
67598;DHT22;62026;39.230;9.122;2023-02-28T02:10:56;12.00;70.30
67598;DHT22;62026;39.230;9.122;2023-02-28T02:25:49;12.00;69.00
67598;DHT22;62026;39.230;9.122;2023-02-28T02:37:15;11.90;68.70
67598;DHT22;62026;39.230;9.122;2023-02-28T02:42:29;11.90;68.40
67598;DHT22;62026;39.230;9.122;2023-02-28T02:45:23;11.80;68.30
67598;DHT22;62026;39.230;9.122;2023-02-28T02:47:55;11.80;68.70
67598;DHT22;62026;39.230;9.122;2023-02-28T02:50:29;11.80;68.30
67598;DHT22;62026;39.230;9.122;2023-02-28T02:53:03;11.80;68.30
67598;DHT22;62026;39.230;9.122;2023-02-28T02:55:36;11.70;68.40
67598;DHT22;62026;39.230;9.122;2023-02-28T02:58:09;11.70;68.60
67598;DHT22;62026;39.230;9.122;2023-02-28T03:00:45;11.70;68.50
67598;DHT22;62026;39.230;9.122;2023-02-28T03:03:15;11.70;68.60
67598;DHT22;62026;39.230;9.122;2023-02-28T03:05:48;11.70;69.10
67598;DHT22;62026;39.230;9.122;2023-02-28T03:08:16;11.70;69.40
67598;DHT22;62026;39.230;9.122;2023-02-28T03:10:44;11.70;69.30
67598;DHT22;62026;39.230;9.122;2023-02-28T03:22:57;11.60;69.10
67598;DHT22;62026;39.230;9.122;2023-02-28T03:25:43;11.60;69.00
67598;DHT22;62026;39.230;9.122;2023-02-28T03:30:59;11.50;68.40
67598;DHT22;62026;39.230;9.122;2023-02-28T03:34:05;11.50;68.50
67598;DHT22;62026;39.230;9.122;2023-02-28T03:36:39;11.40;68.60
67598;DHT22;62026;39.230;9.122;2023-02-28T03:39:33;11.50;68.70
67598;DHT22;62026;39.230;9.122;2023-02-28T03:42:14;11.50;68.40
67598;DHT22;62026;39.230;9.122;2023-02-28T03:44:52;11.50;68.40
67598;DHT22;62026;39.230;9.122;2023-02-28T03:47:25;11.50;68.50
67598;DHT22;62026;39.230;9.122;2023-02-28T03:50:09;11.50;68.20
67598;DHT22;62026;39.230;9.122;2023-02-28T03:52:50;11.50;68.20
67598;DHT22;62026;39.230;9.122;2023-02-28T03:55:28;11.50;68.20
67598;DHT22;62026;39.230;9.122;2023-02-28T04:01:11;11.50;68.10
67598;DHT22;62026;39.230;9.122;2023-02-28T04:03:41;11.50;68.30
67598;DHT22;62026;39.230;9.122;2023-02-28T04:06:13;11.50;68.40
67598;DHT22;62026;39.230;9.122;2023-02-28T04:08:42;11.50;68.70
67598;DHT22;62026;39.230;9.122;2023-02-28T04:11:22;11.50;68.90
67598;DHT22;62026;39.230;9.122;2023-02-28T04:13:54;11.50;68.90
67598;DHT22;62026;39.230;9.122;2023-02-28T04:16:20;11.50;68.90
67598;DHT22;62026;39.230;9.122;2023-02-28T04:18:46;11.50;69.00
67598;DHT22;62026;39.230;9.122;2023-02-28T04:21:12;11.50;69.00
67598;DHT22;62026;39.230;9.122;2023-02-28T04:23:39;11.50;69.20
67598;DHT22;62026;39.230;9.122;2023-02-28T04:26:05;11.40;69.40
67598;DHT22;62026;39.230;9.122;2023-02-28T04:28:32;11.50;69.50
67598;DHT22;62026;39.230;9.122;2023-02-28T04:31:04;11.40;69.50
67598;DHT22;62026;39.230;9.122;2023-02-28T04:33:32;11.40;69.60
67598;DHT22;62026;39.230;9.122;2023-02-28T04:36:02;11.40;69.50
67598;DHT22;62026;39.230;9.122;2023-02-28T04:38:38;11.40;69.50
67598;DHT22;62026;39.230;9.122;2023-02-28T04:41:04;11.40;69.50
67598;DHT22;62026;39.230;9.122;2023-02-28T04:43:31;11.40;69.50
67598;DHT22;62026;39.230;9.122;2023-02-28T04:46:00;11.40;69.70
67598;DHT22;62026;39.230;9.122;2023-02-28T04:48:29;11.40;70.00
67598;DHT22;62026;39.230;9.122;2023-02-28T04:51:09;11.30;70.20
67598;DHT22;62026;39.230;9.122;2023-02-28T04:53:38;11.30;70.40
67598;DHT22;62026;39.230;9.122;2023-02-28T04:56:07;11.20;70.20
67598;DHT22;62026;39.230;9.122;2023-02-28T04:58:34;11.30;70.20
67598;DHT22;62026;39.230;9.122;2023-02-28T05:01:26;11.30;70.30
67598;DHT22;62026;39.230;9.122;2023-02-28T05:03:57;11.20;70.50
67598;DHT22;62026;39.230;9.122;2023-02-28T05:06:26;11.20;70.70
67598;DHT22;62026;39.230;9.122;2023-02-28T05:08:53;11.20;70.70
67598;DHT22;62026;39.230;9.122;2023-02-28T05:11:31;11.20;70.70
67598;DHT22;62026;39.230;9.122;2023-02-28T05:14:14;11.10;70.70
67598;DHT22;62026;39.230;9.122;2023-02-28T05:16:40;11.10;70.80
67598;DHT22;62026;39.230;9.122;2023-02-28T05:19:06;11.10;70.70
67598;DHT22;62026;39.230;9.122;2023-02-28T05:21:41;11.10;70.50
67598;DHT22;62026;39.230;9.122;2023-02-28T05:24:15;11.10;70.60
67598;DHT22;62026;39.230;9.122;2023-02-28T05:26:49;11.00;70.60
67598;DHT22;62026;39.230;9.122;2023-02-28T05:29:18;11.10;70.40
67598;DHT22;62026;39.230;9.122;2023-02-28T05:31:44;11.00;70.20
67598;DHT22;62026;39.230;9.122;2023-02-28T05:34:10;10.90;70.10
67598;DHT22;62026;39.230;9.122;2023-02-28T05:36:38;10.90;69.80
67598;DHT22;62026;39.230;9.122;2023-02-28T05:39:07;10.80;69.90
67598;DHT22;62026;39.230;9.122;2023-02-28T05:41:41;10.80;69.60
67598;DHT22;62026;39.230;9.122;2023-02-28T05:44:08;10.80;69.90
67598;DHT22;62026;39.230;9.122;2023-02-28T05:46:34;10.90;69.80
67598;DHT22;62026;39.230;9.122;2023-02-28T05:49:01;10.90;69.60
67598;DHT22;62026;39.230;9.122;2023-02-28T05:51:27;10.90;69.70
67598;DHT22;62026;39.230;9.122;2023-02-28T05:53:53;11.00;69.50
67598;DHT22;62026;39.230;9.122;2023-02-28T05:56:20;11.00;69.40
67598;DHT22;62026;39.230;9.122;2023-02-28T05:58:46;11.00;69.20
67598;DHT22;62026;39.230;9.122;2023-02-28T06:04:18;10.90;69.10
67598;DHT22;62026;39.230;9.122;2023-02-28T06:06:46;10.80;69.00
67598;DHT22;62026;39.230;9.122;2023-02-28T06:09:13;10.80;69.10
67598;DHT22;62026;39.230;9.122;2023-02-28T06:11:40;10.80;68.90
67598;DHT22;62026;39.230;9.122;2023-02-28T06:14:09;10.80;68.80
67598;DHT22;62026;39.230;9.122;2023-02-28T06:16:41;10.80;68.50
67598;DHT22;62026;39.230;9.122;2023-02-28T06:19:08;10.80;68.40
67598;DHT22;62026;39.230;9.122;2023-02-28T06:21:35;10.70;68.10
67598;DHT22;62026;39.230;9.122;2023-02-28T06:24:02;10.70;68.10
67598;DHT22;62026;39.230;9.122;2023-02-28T06:26:28;10.70;68.00
67598;DHT22;62026;39.230;9.122;2023-02-28T06:28:55;10.70;67.60
67598;DHT22;62026;39.230;9.122;2023-02-28T06:31:21;10.60;67.30
67598;DHT22;62026;39.230;9.122;2023-02-28T06:33:49;10.70;67.00
67598;DHT22;62026;39.230;9.122;2023-02-28T06:36:15;10.70;67.00
67598;DHT22;62026;39.230;9.122;2023-02-28T06:38:42;10.70;67.00
67598;DHT22;62026;39.230;9.122;2023-02-28T06:41:10;10.70;66.70
67598;DHT22;62026;39.230;9.122;2023-02-28T06:43:39;10.80;66.90
67598;DHT22;62026;39.230;9.122;2023-02-28T06:46:09;10.80;66.50
67598;DHT22;62026;39.230;9.122;2023-02-28T06:48:39;10.70;66.10
67598;DHT22;62026;39.230;9.122;2023-02-28T06:51:14;10.70;66.40
67598;DHT22;62026;39.230;9.122;2023-02-28T06:53:43;10.70;66.70
67598;DHT22;62026;39.230;9.122;2023-02-28T06:56:12;10.70;66.50
67598;DHT22;62026;39.230;9.122;2023-02-28T06:58:40;10.70;66.40
67598;DHT22;62026;39.230;9.122;2023-02-28T07:01:07;10.50;68.20
67598;DHT22;62026;39.230;9.122;2023-02-28T07:03:35;10.40;67.50
67598;DHT22;62026;39.230;9.122;2023-02-28T07:06:02;10.20;67.30
67598;DHT22;62026;39.230;9.122;2023-02-28T07:08:29;10.10;67.60
67598;DHT22;62026;39.230;9.122;2023-02-28T07:10:57;10.10;67.50
67598;DHT22;62026;39.230;9.122;2023-02-28T07:13:24;10.10;68.10
67598;DHT22;62026;39.230;9.122;2023-02-28T07:15:58;10.30;68.00
67598;DHT22;62026;39.230;9.122;2023-02-28T07:18:26;10.50;67.10
67598;DHT22;62026;39.230;9.122;2023-02-28T07:20:52;10.50;66.80
67598;DHT22;62026;39.230;9.122;2023-02-28T07:23:19;10.60;66.70
67598;DHT22;62026;39.230;9.122;2023-02-28T07:25:46;10.60;66.60
67598;DHT22;62026;39.230;9.122;2023-02-28T07:28:13;10.50;66.70
67598;DHT22;62026;39.230;9.122;2023-02-28T07:30:40;10.60;66.90
67598;DHT22;62026;39.230;9.122;2023-02-28T07:33:06;10.80;67.10
67598;DHT22;62026;39.230;9.122;2023-02-28T07:35:33;10.80;67.70
67598;DHT22;62026;39.230;9.122;2023-02-28T07:37:59;10.80;67.90
67598;DHT22;62026;39.230;9.122;2023-02-28T07:40:26;10.70;68.10
67598;DHT22;62026;39.230;9.122;2023-02-28T07:42:52;10.80;68.00
67598;DHT22;62026;39.230;9.122;2023-02-28T07:45:19;10.70;67.80
67598;DHT22;62026;39.230;9.122;2023-02-28T07:47:45;10.70;67.70
67598;DHT22;62026;39.230;9.122;2023-02-28T07:50:14;10.70;68.20
67598;DHT22;62026;39.230;9.122;2023-02-28T07:52:41;10.80;68.00
67598;DHT22;62026;39.230;9.122;2023-02-28T07:55:09;10.80;68.00
67598;DHT22;62026;39.230;9.122;2023-02-28T07:57:36;10.80;68.00
67598;DHT22;62026;39.230;9.122;2023-02-28T08:00:06;10.80;68.00
67598;DHT22;62026;39.230;9.122;2023-02-28T08:02:39;10.80;68.20
67598;DHT22;62026;39.230;9.122;2023-02-28T08:05:06;10.80;67.90
67598;DHT22;62026;39.230;9.122;2023-02-28T08:07:33;10.80;68.10
67598;DHT22;62026;39.230;9.122;2023-02-28T08:09:59;10.80;68.40
67598;DHT22;62026;39.230;9.122;2023-02-28T08:12:25;10.80;68.40
67598;DHT22;62026;39.230;9.122;2023-02-28T08:14:52;10.80;67.90
67598;DHT22;62026;39.230;9.122;2023-02-28T08:17:18;10.80;67.80
67598;DHT22;62026;39.230;9.122;2023-02-28T08:19:47;10.80;67.30
67598;DHT22;62026;39.230;9.122;2023-02-28T08:22:13;10.70;67.10
67598;DHT22;62026;39.230;9.122;2023-02-28T08:24:41;10.70;67.40
67598;DHT22;62026;39.230;9.122;2023-02-28T08:27:09;10.70;67.10
67598;DHT22;62026;39.230;9.122;2023-02-28T08:29:38;10.70;66.60
67598;DHT22;62026;39.230;9.122;2023-02-28T08:32:06;10.70;64.10
67598;DHT22;62026;39.230;9.122;2023-02-28T08:34:32;10.70;66.40
67598;DHT22;62026;39.230;9.122;2023-02-28T08:36:58;10.70;67.30
67598;DHT22;62026;39.230;9.122;2023-02-28T08:39:24;10.70;67.40
67598;DHT22;62026;39.230;9.122;2023-02-28T08:41:50;10.80;67.10
67598;DHT22;62026;39.230;9.122;2023-02-28T08:44:16;10.60;67.60
67598;DHT22;62026;39.230;9.122;2023-02-28T08:46:42;10.70;67.70
67598;DHT22;62026;39.230;9.122;2023-02-28T08:49:10;10.70;68.20
67598;DHT22;62026;39.230;9.122;2023-02-28T08:51:38;10.70;68.70
67598;DHT22;62026;39.230;9.122;2023-02-28T08:54:04;10.60;69.20
67598;DHT22;62026;39.230;9.122;2023-02-28T08:56:30;10.60;69.50
67598;DHT22;62026;39.230;9.122;2023-02-28T08:58:57;10.50;70.10
67598;DHT22;62026;39.230;9.122;2023-02-28T09:01:25;10.60;70.30
67598;DHT22;62026;39.230;9.122;2023-02-28T09:03:54;10.70;70.30
67598;DHT22;62026;39.230;9.122;2023-02-28T09:06:22;10.70;70.30
67598;DHT22;62026;39.230;9.122;2023-02-28T09:08:50;10.60;70.60
67598;DHT22;62026;39.230;9.122;2023-02-28T09:11:17;10.50;70.40
67598;DHT22;62026;39.230;9.122;2023-02-28T09:13:45;10.50;70.50
67598;DHT22;62026;39.230;9.122;2023-02-28T09:16:13;10.60;70.20
67598;DHT22;62026;39.230;9.122;2023-02-28T09:18:41;10.80;70.00
67598;DHT22;62026;39.230;9.122;2023-02-28T09:21:10;10.90;70.10
67598;DHT22;62026;39.230;9.122;2023-02-28T09:23:43;11.00;70.10
67598;DHT22;62026;39.230;9.122;2023-02-28T09:26:19;11.00;70.20
67598;DHT22;62026;39.230;9.122;2023-02-28T09:28:45;11.10;70.20
67598;DHT22;62026;39.230;9.122;2023-02-28T09:31:18;11.10;70.30
67598;DHT22;62026;39.230;9.122;2023-02-28T09:33:50;11.00;70.00
67598;DHT22;62026;39.230;9.122;2023-02-28T09:36:19;11.00;69.70
67598;DHT22;62026;39.230;9.122;2023-02-28T09:38:46;11.00;69.10
67598;DHT22;62026;39.230;9.122;2023-02-28T09:41:39;10.90;69.20
67598;DHT22;62026;39.230;9.122;2023-02-28T09:49:57;11.10;69.60
67598;DHT22;62026;39.230;9.122;2023-02-28T09:52:29;11.10;69.20
67598;DHT22;62026;39.230;9.122;2023-02-28T09:55:09;11.10;69.00
67598;DHT22;62026;39.230;9.122;2023-02-28T09:57:41;11.10;69.10
67598;DHT22;62026;39.230;9.122;2023-02-28T10:00:22;11.20;69.30
67598;DHT22;62026;39.230;9.122;2023-02-28T10:03:29;11.10;69.20
67598;DHT22;62026;39.230;9.122;2023-02-28T10:06:22;11.10;69.70
67598;DHT22;62026;39.230;9.122;2023-02-28T10:11:25;11.20;70.60
67598;DHT22;62026;39.230;9.122;2023-02-28T10:14:19;11.30;71.10
67598;DHT22;62026;39.230;9.122;2023-02-28T10:16:51;11.20;71.80
67598;DHT22;62026;39.230;9.122;2023-02-28T10:19:40;11.30;72.40
67598;DHT22;62026;39.230;9.122;2023-02-28T10:22:38;11.20;72.70
67598;DHT22;62026;39.230;9.122;2023-02-28T10:25:24;11.20;72.70
67598;DHT22;62026;39.230;9.122;2023-02-28T10:30:46;11.20;71.80
67598;DHT22;62026;39.230;9.122;2023-02-28T10:33:28;11.20;71.70
67598;DHT22;62026;39.230;9.122;2023-02-28T10:35:57;11.30;72.20
67598;DHT22;62026;39.230;9.122;2023-02-28T10:38:31;11.30;72.80
67598;DHT22;62026;39.230;9.122;2023-02-28T10:41:11;11.30;73.20
67598;DHT22;62026;39.230;9.122;2023-02-28T10:43:41;11.10;72.40
67598;DHT22;62026;39.230;9.122;2023-02-28T10:48:37;11.10;71.90
67598;DHT22;62026;39.230;9.122;2023-02-28T10:51:15;11.10;72.00
67598;DHT22;62026;39.230;9.122;2023-02-28T11:01:40;11.00;72.60
67598;DHT22;62026;39.230;9.122;2023-02-28T11:06:58;11.00;70.10
67598;DHT22;62026;39.230;9.122;2023-02-28T11:12:26;10.90;67.80
67598;DHT22;62026;39.230;9.122;2023-02-28T11:15:24;10.80;67.10
67598;DHT22;62026;39.230;9.122;2023-02-28T11:20:54;10.90;67.00
67598;DHT22;62026;39.230;9.122;2023-02-28T11:23:25;10.90;66.60
67598;DHT22;62026;39.230;9.122;2023-02-28T11:25:58;10.90;66.10
67598;DHT22;62026;39.230;9.122;2023-02-28T11:28:30;10.90;66.00
67598;DHT22;62026;39.230;9.122;2023-02-28T11:38:42;11.10;65.90
67598;DHT22;62026;39.230;9.122;2023-02-28T11:46:58;11.10;64.50
67598;DHT22;62026;39.230;9.122;2023-02-28T11:53:10;11.00;63.70
67598;DHT22;62026;39.230;9.122;2023-02-28T12:05:39;11.00;63.70
67598;DHT22;62026;39.230;9.122;2023-02-28T12:17:47;11.10;63.20
67598;DHT22;62026;39.230;9.122;2023-02-28T12:26:38;11.20;62.60
67598;DHT22;62026;39.230;9.122;2023-02-28T12:32:13;11.20;62.60
67598;DHT22;62026;39.230;9.122;2023-02-28T12:35:14;11.20;63.60
67598;DHT22;62026;39.230;9.122;2023-02-28T12:37:55;11.20;62.30
67598;DHT22;62026;39.230;9.122;2023-02-28T12:40:41;11.20;63.00
67598;DHT22;62026;39.230;9.122;2023-02-28T12:43:13;11.20;62.70
67598;DHT22;62026;39.230;9.122;2023-02-28T12:48:29;11.20;62.70
67598;DHT22;62026;39.230;9.122;2023-02-28T12:51:06;11.20;62.40
67598;DHT22;62026;39.230;9.122;2023-02-28T13:10:46;11.20;63.70
67598;DHT22;62026;39.230;9.122;2023-02-28T13:13:18;11.20;63.30
67598;DHT22;62026;39.230;9.122;2023-02-28T13:16:09;11.30;63.50
67598;DHT22;62026;39.230;9.122;2023-02-28T13:18:43;11.30;63.40
67598;DHT22;62026;39.230;9.122;2023-02-28T13:21:28;11.20;63.40
67598;DHT22;62026;39.230;9.122;2023-02-28T13:23:57;11.30;64.10
67598;DHT22;62026;39.230;9.122;2023-02-28T13:34:40;11.50;64.90
67598;DHT22;62026;39.230;9.122;2023-02-28T13:39:52;11.30;66.10
67598;DHT22;62026;39.230;9.122;2023-02-28T13:48:05;11.00;66.70
67598;DHT22;62026;39.230;9.122;2023-02-28T13:50:43;10.90;66.90
67598;DHT22;62026;39.230;9.122;2023-02-28T13:56:03;10.90;68.50
67598;DHT22;62026;39.230;9.122;2023-02-28T14:07:25;10.90;68.70
67598;DHT22;62026;39.230;9.122;2023-02-28T14:10:07;10.90;68.20
67598;DHT22;62026;39.230;9.122;2023-02-28T14:12:53;11.00;68.00
67598;DHT22;62026;39.230;9.122;2023-02-28T14:18:16;11.00;66.80
67598;DHT22;62026;39.230;9.122;2023-02-28T14:20:48;11.00;66.70
67598;DHT22;62026;39.230;9.122;2023-02-28T14:32:51;11.00;68.00
67598;DHT22;62026;39.230;9.122;2023-02-28T14:38:35;11.00;69.40
67598;DHT22;62026;39.230;9.122;2023-02-28T14:41:14;11.00;69.40
67598;DHT22;62026;39.230;9.122;2023-02-28T14:44:00;11.00;69.40
67598;DHT22;62026;39.230;9.122;2023-02-28T14:46:37;11.00;69.20
67598;DHT22;62026;39.230;9.122;2023-02-28T14:49:06;11.00;69.00
67598;DHT22;62026;39.230;9.122;2023-02-28T14:51:38;11.00;69.30
67598;DHT22;62026;39.230;9.122;2023-02-28T14:54:05;10.90;69.40
67598;DHT22;62026;39.230;9.122;2023-02-28T14:56:38;10.70;69.90
67598;DHT22;62026;39.230;9.122;2023-02-28T14:59:17;10.70;70.10
67598;DHT22;62026;39.230;9.122;2023-02-28T15:01:49;10.50;70.60
67598;DHT22;62026;39.230;9.122;2023-02-28T15:04:25;10.40;71.30
67598;DHT22;62026;39.230;9.122;2023-02-28T15:07:13;10.30;71.60
67598;DHT22;62026;39.230;9.122;2023-02-28T15:09:40;10.30;71.50
67598;DHT22;62026;39.230;9.122;2023-02-28T15:12:07;10.30;71.20
67598;DHT22;62026;39.230;9.122;2023-02-28T15:14:34;10.30;71.70
67598;DHT22;62026;39.230;9.122;2023-02-28T15:17:09;10.40;72.00
67598;DHT22;62026;39.230;9.122;2023-02-28T15:19:42;10.40;71.70
67598;DHT22;62026;39.230;9.122;2023-02-28T15:22:17;10.40;71.40
67598;DHT22;62026;39.230;9.122;2023-02-28T15:24:50;10.40;71.30
67598;DHT22;62026;39.230;9.122;2023-02-28T15:27:23;10.50;70.90
67598;DHT22;62026;39.230;9.122;2023-02-28T15:29:58;10.60;70.50
67598;DHT22;62026;39.230;9.122;2023-02-28T15:32:31;10.50;70.20
67598;DHT22;62026;39.230;9.122;2023-02-28T15:38:26;10.60;69.70
67598;DHT22;62026;39.230;9.122;2023-02-28T15:40:54;10.60;69.40
67598;DHT22;62026;39.230;9.122;2023-02-28T15:46:04;10.60;69.20
67598;DHT22;62026;39.230;9.122;2023-02-28T15:48:36;10.60;69.10
67598;DHT22;62026;39.230;9.122;2023-02-28T15:53:50;10.60;68.90
67598;DHT22;62026;39.230;9.122;2023-02-28T15:56:29;10.60;69.00
67598;DHT22;62026;39.230;9.122;2023-02-28T15:59:03;10.60;69.00
67598;DHT22;62026;39.230;9.122;2023-02-28T16:01:35;10.60;68.90
67598;DHT22;62026;39.230;9.122;2023-02-28T16:04:05;10.60;68.80
67598;DHT22;62026;39.230;9.122;2023-02-28T16:06:44;10.60;69.10
67598;DHT22;62026;39.230;9.122;2023-02-28T16:09:14;10.60;69.50
67598;DHT22;62026;39.230;9.122;2023-02-28T16:11:49;10.60;69.50
67598;DHT22;62026;39.230;9.122;2023-02-28T16:14:24;10.60;69.60
67598;DHT22;62026;39.230;9.122;2023-02-28T16:16:55;10.60;69.60
67598;DHT22;62026;39.230;9.122;2023-02-28T16:19:27;10.60;69.20
67598;DHT22;62026;39.230;9.122;2023-02-28T16:21:53;10.60;69.10
67598;DHT22;62026;39.230;9.122;2023-02-28T16:24:19;10.60;68.80
67598;DHT22;62026;39.230;9.122;2023-02-28T16:26:47;10.60;69.10
67598;DHT22;62026;39.230;9.122;2023-02-28T16:29:24;10.50;68.60
67598;DHT22;62026;39.230;9.122;2023-02-28T16:31:55;10.30;69.20
67598;DHT22;62026;39.230;9.122;2023-02-28T16:34:22;10.30;69.50
67598;DHT22;62026;39.230;9.122;2023-02-28T16:36:49;10.30;69.60
67598;DHT22;62026;39.230;9.122;2023-02-28T16:39:16;10.20;69.90
67598;DHT22;62026;39.230;9.122;2023-02-28T16:41:44;10.20;70.10
67598;DHT22;62026;39.230;9.122;2023-02-28T16:44:27;10.30;69.80
67598;DHT22;62026;39.230;9.122;2023-02-28T16:46:56;10.30;69.70
67598;DHT22;62026;39.230;9.122;2023-02-28T16:49:22;10.30;69.70
67598;DHT22;62026;39.230;9.122;2023-02-28T16:51:48;10.20;69.70
67598;DHT22;62026;39.230;9.122;2023-02-28T16:54:14;10.20;70.10
67598;DHT22;62026;39.230;9.122;2023-02-28T16:56:44;10.30;70.00
67598;DHT22;62026;39.230;9.122;2023-02-28T16:59:12;10.40;69.90
67598;DHT22;62026;39.230;9.122;2023-02-28T17:01:40;10.30;69.50
67598;DHT22;62026;39.230;9.122;2023-02-28T17:04:08;10.30;69.00
67598;DHT22;62026;39.230;9.122;2023-02-28T17:06:37;10.30;69.20
67598;DHT22;62026;39.230;9.122;2023-02-28T17:09:03;10.30;69.40
67598;DHT22;62026;39.230;9.122;2023-02-28T17:11:29;10.30;69.50
67598;DHT22;62026;39.230;9.122;2023-02-28T17:13:55;10.40;69.20
67598;DHT22;62026;39.230;9.122;2023-02-28T17:16:29;10.40;69.40
67598;DHT22;62026;39.230;9.122;2023-02-28T17:19:03;10.40;69.60
67598;DHT22;62026;39.230;9.122;2023-02-28T17:21:31;10.40;69.30
67598;DHT22;62026;39.230;9.122;2023-02-28T17:24:00;10.40;69.10
67598;DHT22;62026;39.230;9.122;2023-02-28T17:26:26;10.30;69.20
67598;DHT22;62026;39.230;9.122;2023-02-28T17:28:54;10.30;68.90
67598;DHT22;62026;39.230;9.122;2023-02-28T17:31:23;10.30;69.10
67598;DHT22;62026;39.230;9.122;2023-02-28T17:33:51;10.30;69.00
67598;DHT22;62026;39.230;9.122;2023-02-28T17:36:23;10.30;68.60
67598;DHT22;62026;39.230;9.122;2023-02-28T17:38:52;10.30;68.80
67598;DHT22;62026;39.230;9.122;2023-02-28T17:41:18;10.20;68.90
67598;DHT22;62026;39.230;9.122;2023-02-28T17:43:44;10.20;69.10
67598;DHT22;62026;39.230;9.122;2023-02-28T17:46:19;10.30;69.40
67598;DHT22;62026;39.230;9.122;2023-02-28T17:48:48;10.30;69.50
67598;DHT22;62026;39.230;9.122;2023-02-28T17:51:19;10.10;70.30
67598;DHT22;62026;39.230;9.122;2023-02-28T17:53:46;10.00;70.20
67598;DHT22;62026;39.230;9.122;2023-02-28T17:56:16;10.10;70.00
67598;DHT22;62026;39.230;9.122;2023-02-28T17:58:45;10.10;69.70
67598;DHT22;62026;39.230;9.122;2023-02-28T18:01:11;10.20;69.60
67598;DHT22;62026;39.230;9.122;2023-02-28T18:03:38;10.20;69.60
67598;DHT22;62026;39.230;9.122;2023-02-28T18:06:05;10.20;69.60
67598;DHT22;62026;39.230;9.122;2023-02-28T18:08:32;10.30;69.70
67598;DHT22;62026;39.230;9.122;2023-02-28T18:11:00;10.30;69.70
67598;DHT22;62026;39.230;9.122;2023-02-28T18:13:27;10.20;69.70
67598;DHT22;62026;39.230;9.122;2023-02-28T18:15:56;10.20;69.70
67598;DHT22;62026;39.230;9.122;2023-02-28T18:18:22;10.30;69.90
67598;DHT22;62026;39.230;9.122;2023-02-28T18:20:48;10.30;69.90
67598;DHT22;62026;39.230;9.122;2023-02-28T18:23:15;10.30;70.10
67598;DHT22;62026;39.230;9.122;2023-02-28T18:25:43;10.20;70.00
67598;DHT22;62026;39.230;9.122;2023-02-28T18:28:09;10.10;69.50
67598;DHT22;62026;39.230;9.122;2023-02-28T18:30:36;10.10;69.20
67598;DHT22;62026;39.230;9.122;2023-02-28T18:33:03;10.10;69.00
67598;DHT22;62026;39.230;9.122;2023-02-28T18:35:30;10.10;69.00
67598;DHT22;62026;39.230;9.122;2023-02-28T18:38:17;10.10;69.00
67598;DHT22;62026;39.230;9.122;2023-02-28T18:40:55;10.00;69.20
67598;DHT22;62026;39.230;9.122;2023-02-28T18:43:24;9.90;69.20
67598;DHT22;62026;39.230;9.122;2023-02-28T18:45:51;10.00;69.40
67598;DHT22;62026;39.230;9.122;2023-02-28T18:48:17;10.10;69.70
67598;DHT22;62026;39.230;9.122;2023-02-28T18:50:45;10.00;69.80
67598;DHT22;62026;39.230;9.122;2023-02-28T18:53:12;10.00;70.00
67598;DHT22;62026;39.230;9.122;2023-02-28T18:55:38;10.00;69.90
67598;DHT22;62026;39.230;9.122;2023-02-28T18:58:04;10.10;70.00
67598;DHT22;62026;39.230;9.122;2023-02-28T19:00:30;10.10;69.90
67598;DHT22;62026;39.230;9.122;2023-02-28T19:02:57;10.10;69.90
67598;DHT22;62026;39.230;9.122;2023-02-28T19:05:23;10.00;70.10